sensor_id;sensor_type;location;lat;lon;timestamp;pressure;altitude;pressure_sealevel;temperature;humidity
65760;BME280;52496;51.082;5.066;2023-09-12T00:00:26;101180.38;;;19.36;100.00
65760;BME280;52496;51.082;5.066;2023-09-12T00:02:56;101177.38;;;19.25;100.00
65760;BME280;52496;51.082;5.066;2023-09-12T00:05:26;101189.41;;;19.18;100.00
65760;BME280;52496;51.082;5.066;2023-09-12T00:07:57;101200.72;;;19.15;100.00
65760;BME280;52496;51.082;5.066;2023-09-12T00:10:27;101195.41;;;19.08;100.00
65760;BME280;52496;51.082;5.066;2023-09-12T00:12:58;101194.19;;;19.04;100.00
65760;BME280;52496;51.082;5.066;2023-09-12T00:15:32;101189.25;;;19.01;100.00
65760;BME280;52496;51.082;5.066;2023-09-12T00:18:03;101185.09;;;18.98;100.00
65760;BME280;52496;51.082;5.066;2023-09-12T00:20:33;101189.56;;;18.93;100.00
65760;BME280;52496;51.082;5.066;2023-09-12T00:23:04;101192.38;;;18.86;100.00
65760;BME280;52496;51.082;5.066;2023-09-12T00:25:35;101189.56;;;18.81;100.00
65760;BME280;52496;51.082;5.066;2023-09-12T00:28:06;101192.34;;;18.74;100.00
65760;BME280;52496;51.082;5.066;2023-09-12T00:30:36;101193.00;;;18.70;100.00
65760;BME280;52496;51.082;5.066;2023-09-12T00:33:08;101192.88;;;18.65;100.00
65760;BME280;52496;51.082;5.066;2023-09-12T00:35:38;101195.81;;;18.63;100.00
65760;BME280;52496;51.082;5.066;2023-09-12T00:38:09;101188.97;;;18.61;100.00
65760;BME280;52496;51.082;5.066;2023-09-12T00:40:40;101195.66;;;18.58;100.00
65760;BME280;52496;51.082;5.066;2023-09-12T00:43:10;101189.06;;;18.54;100.00
65760;BME280;52496;51.082;5.066;2023-09-12T00:45:41;101187.84;;;18.50;100.00
65760;BME280;52496;51.082;5.066;2023-09-12T00:48:12;101187.28;;;18.48;100.00
65760;BME280;52496;51.082;5.066;2023-09-12T00:50:43;101180.19;;;18.47;100.00
65760;BME280;52496;51.082;5.066;2023-09-12T00:53:15;101178.06;;;18.49;100.00
65760;BME280;52496;51.082;5.066;2023-09-12T00:55:51;101185.38;;;18.48;100.00
65760;BME280;52496;51.082;5.066;2023-09-12T00:58:23;101179.97;;;18.48;100.00
65760;BME280;52496;51.082;5.066;2023-09-12T01:00:54;101181.25;;;18.46;100.00
65760;BME280;52496;51.082;5.066;2023-09-12T01:03:25;101177.94;;;18.44;100.00
65760;BME280;52496;51.082;5.066;2023-09-12T01:05:59;101172.97;;;18.41;100.00
65760;BME280;52496;51.082;5.066;2023-09-12T01:08:30;101171.78;;;18.37;100.00
65760;BME280;52496;51.082;5.066;2023-09-12T01:11:00;101176.00;;;18.32;100.00
65760;BME280;52496;51.082;5.066;2023-09-12T01:13:31;101170.44;;;18.27;100.00
65760;BME280;52496;51.082;5.066;2023-09-12T01:16:02;101187.75;;;18.26;100.00
65760;BME280;52496;51.082;5.066;2023-09-12T01:18:32;101187.34;;;18.23;100.00
65760;BME280;52496;51.082;5.066;2023-09-12T01:27:25;101177.75;;;18.08;100.00
65760;BME280;52496;51.082;5.066;2023-09-12T01:30:00;101173.38;;;18.07;100.00
65760;BME280;52496;51.082;5.066;2023-09-12T01:32:32;101177.16;;;18.06;100.00
65760;BME280;52496;51.082;5.066;2023-09-12T01:35:04;101174.69;;;18.05;100.00
65760;BME280;52496;51.082;5.066;2023-09-12T01:37:34;101185.97;;;18.02;100.00
65760;BME280;52496;51.082;5.066;2023-09-12T01:40:06;101186.41;;;17.99;100.00
65760;BME280;52496;51.082;5.066;2023-09-12T01:42:40;101193.91;;;17.97;100.00
65760;BME280;52496;51.082;5.066;2023-09-12T01:45:16;101188.34;;;17.92;100.00
65760;BME280;52496;51.082;5.066;2023-09-12T01:47:48;101184.19;;;17.89;100.00
65760;BME280;52496;51.082;5.066;2023-09-12T01:50:20;101180.09;;;17.86;100.00
65760;BME280;52496;51.082;5.066;2023-09-12T01:52:52;101185.94;;;17.83;100.00
65760;BME280;52496;51.082;5.066;2023-09-12T01:55:24;101183.69;;;17.80;100.00
65760;BME280;52496;51.082;5.066;2023-09-12T01:57:56;101180.38;;;17.78;100.00
65760;BME280;52496;51.082;5.066;2023-09-12T02:00:28;101184.56;;;17.74;100.00
65760;BME280;52496;51.082;5.066;2023-09-12T02:02:58;101180.41;;;17.72;100.00
65760;BME280;52496;51.082;5.066;2023-09-12T02:05:29;101167.34;;;17.69;100.00
65760;BME280;52496;51.082;5.066;2023-09-12T02:07:59;101157.34;;;17.69;100.00
65760;BME280;52496;51.082;5.066;2023-09-12T02:10:35;101153.00;;;17.68;100.00
65760;BME280;52496;51.082;5.066;2023-09-12T02:13:05;101158.41;;;17.68;100.00
65760;BME280;52496;51.082;5.066;2023-09-12T02:15:36;101157.53;;;17.67;100.00
65760;BME280;52496;51.082;5.066;2023-09-12T02:18:06;101162.97;;;17.67;100.00
65760;BME280;52496;51.082;5.066;2023-09-12T02:20:41;101156.97;;;17.65;100.00
65760;BME280;52496;51.082;5.066;2023-09-12T02:23:12;101160.94;;;17.63;100.00
65760;BME280;52496;51.082;5.066;2023-09-12T02:25:42;101165.97;;;17.59;100.00
65760;BME280;52496;51.082;5.066;2023-09-12T02:28:13;101169.56;;;17.53;100.00
65760;BME280;52496;51.082;5.066;2023-09-12T02:30:43;101155.63;;;17.50;100.00
65760;BME280;52496;51.082;5.066;2023-09-12T02:33:14;101160.66;;;17.46;100.00
65760;BME280;52496;51.082;5.066;2023-09-12T02:35:44;101142.19;;;17.43;100.00
65760;BME280;52496;51.082;5.066;2023-09-12T02:38:17;101149.47;;;17.42;100.00
65760;BME280;52496;51.082;5.066;2023-09-12T02:40:48;101159.69;;;17.40;100.00
65760;BME280;52496;51.082;5.066;2023-09-12T02:43:18;101160.72;;;17.39;100.00
65760;BME280;52496;51.082;5.066;2023-09-12T02:45:49;101152.00;;;17.37;100.00
65760;BME280;52496;51.082;5.066;2023-09-12T02:48:19;101151.44;;;17.35;100.00
65760;BME280;52496;51.082;5.066;2023-09-12T02:50:50;101153.34;;;17.28;100.00
65760;BME280;52496;51.082;5.066;2023-09-12T02:53:20;101155.66;;;17.25;100.00
65760;BME280;52496;51.082;5.066;2023-09-12T02:55:51;101144.47;;;17.21;100.00
65760;BME280;52496;51.082;5.066;2023-09-12T02:58:22;101140.13;;;17.20;100.00
65760;BME280;52496;51.082;5.066;2023-09-12T03:00:52;101141.75;;;17.21;100.00
65760;BME280;52496;51.082;5.066;2023-09-12T03:03:24;101137.19;;;17.22;100.00
65760;BME280;52496;51.082;5.066;2023-09-12T03:05:59;101150.50;;;17.23;100.00
65760;BME280;52496;51.082;5.066;2023-09-12T03:08:30;101155.06;;;17.23;100.00
65760;BME280;52496;51.082;5.066;2023-09-12T03:11:00;101167.09;;;17.27;100.00
65760;BME280;52496;51.082;5.066;2023-09-12T03:13:33;101163.31;;;17.28;100.00
65760;BME280;52496;51.082;5.066;2023-09-12T03:16:04;101165.59;;;17.31;100.00
65760;BME280;52496;51.082;5.066;2023-09-12T03:18:35;101164.56;;;17.32;100.00
65760;BME280;52496;51.082;5.066;2023-09-12T03:21:06;101164.94;;;17.35;100.00
65760;BME280;52496;51.082;5.066;2023-09-12T03:23:36;101157.41;;;17.37;100.00
65760;BME280;52496;51.082;5.066;2023-09-12T03:26:07;101171.56;;;17.39;100.00
65760;BME280;52496;51.082;5.066;2023-09-12T03:28:37;101163.00;;;17.42;100.00
65760;BME280;52496;51.082;5.066;2023-09-12T03:31:12;101163.59;;;17.45;100.00
65760;BME280;52496;51.082;5.066;2023-09-12T03:33:44;101162.09;;;17.49;100.00
65760;BME280;52496;51.082;5.066;2023-09-12T03:36:19;101158.97;;;17.52;100.00
65760;BME280;52496;51.082;5.066;2023-09-12T03:38:50;101154.16;;;17.54;100.00
65760;BME280;52496;51.082;5.066;2023-09-12T03:41:20;101159.34;;;17.55;100.00
65760;BME280;52496;51.082;5.066;2023-09-12T03:43:56;101154.75;;;17.56;100.00
65760;BME280;52496;51.082;5.066;2023-09-12T03:46:26;101164.53;;;17.57;100.00
65760;BME280;52496;51.082;5.066;2023-09-12T03:48:57;101168.06;;;17.57;100.00
65760;BME280;52496;51.082;5.066;2023-09-12T03:51:27;101181.34;;;17.59;100.00
65760;BME280;52496;51.082;5.066;2023-09-12T03:53:58;101173.84;;;17.61;100.00
65760;BME280;52496;51.082;5.066;2023-09-12T03:56:28;101173.41;;;17.64;100.00
65760;BME280;52496;51.082;5.066;2023-09-12T03:58:59;101175.66;;;17.67;100.00
65760;BME280;52496;51.082;5.066;2023-09-12T04:01:30;101175.22;;;17.70;100.00
65760;BME280;52496;51.082;5.066;2023-09-12T04:04:00;101175.81;;;17.72;100.00
65760;BME280;52496;51.082;5.066;2023-09-12T04:06:31;101179.72;;;17.76;100.00
65760;BME280;52496;51.082;5.066;2023-09-12T04:09:01;101174.97;;;17.78;100.00
65760;BME280;52496;51.082;5.066;2023-09-12T04:11:32;101183.69;;;17.80;100.00
65760;BME280;52496;51.082;5.066;2023-09-12T04:14:02;101176.97;;;17.83;100.00
65760;BME280;52496;51.082;5.066;2023-09-12T04:16:33;101183.25;;;17.83;100.00
65760;BME280;52496;51.082;5.066;2023-09-12T04:19:04;101175.94;;;17.84;100.00
65760;BME280;52496;51.082;5.066;2023-09-12T04:21:34;101175.72;;;17.85;100.00
65760;BME280;52496;51.082;5.066;2023-09-12T04:24:06;101173.63;;;17.87;100.00
65760;BME280;52496;51.082;5.066;2023-09-12T04:26:36;101169.41;;;17.92;100.00
65760;BME280;52496;51.082;5.066;2023-09-12T04:29:07;101169.19;;;17.93;100.00
65760;BME280;52496;51.082;5.066;2023-09-12T04:31:37;101164.34;;;17.95;100.00
65760;BME280;52496;51.082;5.066;2023-09-12T04:34:09;101161.44;;;17.97;100.00
65760;BME280;52496;51.082;5.066;2023-09-12T04:36:39;101163.09;;;17.98;100.00
65760;BME280;52496;51.082;5.066;2023-09-12T04:39:10;101140.97;;;18.01;100.00
65760;BME280;52496;51.082;5.066;2023-09-12T04:41:42;101146.41;;;18.01;100.00
65760;BME280;52496;51.082;5.066;2023-09-12T04:44:12;101120.78;;;18.03;100.00
65760;BME280;52496;51.082;5.066;2023-09-12T04:46:45;101118.44;;;18.07;100.00
65760;BME280;52496;51.082;5.066;2023-09-12T04:49:16;101118.78;;;18.10;100.00
65760;BME280;52496;51.082;5.066;2023-09-12T04:51:46;101114.81;;;18.13;100.00
65760;BME280;52496;51.082;5.066;2023-09-12T04:54:17;101117.06;;;18.16;100.00
65760;BME280;52496;51.082;5.066;2023-09-12T04:56:47;101109.56;;;18.18;100.00
65760;BME280;52496;51.082;5.066;2023-09-12T04:59:18;101097.09;;;18.17;100.00
65760;BME280;52496;51.082;5.066;2023-09-12T05:01:49;101102.03;;;18.20;100.00
65760;BME280;52496;51.082;5.066;2023-09-12T05:04:20;101103.69;;;18.21;100.00
65760;BME280;52496;51.082;5.066;2023-09-12T05:06:51;101117.81;;;18.23;100.00
65760;BME280;52496;51.082;5.066;2023-09-12T05:09:22;101113.22;;;18.24;100.00
65760;BME280;52496;51.082;5.066;2023-09-12T05:11:52;101114.50;;;18.21;100.00
65760;BME280;52496;51.082;5.066;2023-09-12T05:14:23;101127.44;;;18.19;100.00
65760;BME280;52496;51.082;5.066;2023-09-12T05:16:53;101128.03;;;18.21;100.00
65760;BME280;52496;51.082;5.066;2023-09-12T05:19:24;101141.56;;;18.21;100.00
65760;BME280;52496;51.082;5.066;2023-09-12T05:21:56;101140.50;;;18.22;100.00
65760;BME280;52496;51.082;5.066;2023-09-12T05:24:26;101127.22;;;18.21;100.00
65760;BME280;52496;51.082;5.066;2023-09-12T05:27:00;101116.59;;;18.19;100.00
65760;BME280;52496;51.082;5.066;2023-09-12T05:29:30;101131.56;;;18.22;100.00
65760;BME280;52496;51.082;5.066;2023-09-12T05:32:01;101133.22;;;18.23;100.00
65760;BME280;52496;51.082;5.066;2023-09-12T05:34:32;101131.13;;;18.25;100.00
65760;BME280;52496;51.082;5.066;2023-09-12T05:37:02;101130.66;;;18.28;100.00
65760;BME280;52496;51.082;5.066;2023-09-12T05:39:33;101133.16;;;18.29;100.00
65760;BME280;52496;51.082;5.066;2023-09-12T05:42:04;101146.22;;;18.32;100.00
65760;BME280;52496;51.082;5.066;2023-09-12T05:44:34;101151.84;;;18.31;100.00
65760;BME280;52496;51.082;5.066;2023-09-12T05:47:05;101155.38;;;18.31;100.00
65760;BME280;52496;51.082;5.066;2023-09-12T05:49:37;101155.38;;;18.31;100.00
65760;BME280;52496;51.082;5.066;2023-09-12T05:52:07;101172.25;;;18.33;100.00
65760;BME280;52496;51.082;5.066;2023-09-12T05:54:39;101166.81;;;18.33;100.00
65760;BME280;52496;51.082;5.066;2023-09-12T05:57:11;101164.94;;;18.34;100.00
65760;BME280;52496;51.082;5.066;2023-09-12T05:59:41;101174.50;;;18.37;100.00
65760;BME280;52496;51.082;5.066;2023-09-12T06:02:12;101175.09;;;18.39;100.00
65760;BME280;52496;51.082;5.066;2023-09-12T06:04:42;101176.13;;;18.38;100.00
65760;BME280;52496;51.082;5.066;2023-09-12T06:07:13;101170.72;;;18.38;100.00
65760;BME280;52496;51.082;5.066;2023-09-12T06:09:43;101176.75;;;18.40;100.00
65760;BME280;52496;51.082;5.066;2023-09-12T06:12:14;101178.38;;;18.41;100.00
65760;BME280;52496;51.082;5.066;2023-09-12T06:14:44;101186.06;;;18.44;100.00
65760;BME280;52496;51.082;5.066;2023-09-12T06:17:15;101187.72;;;18.45;100.00
65760;BME280;52496;51.082;5.066;2023-09-12T06:19:47;101183.13;;;18.45;100.00
65760;BME280;52496;51.082;5.066;2023-09-12T06:22:17;101187.72;;;18.45;100.00
65760;BME280;52496;51.082;5.066;2023-09-12T06:24:49;101197.50;;;18.46;100.00
65760;BME280;52496;51.082;5.066;2023-09-12T06:27:20;101194.56;;;18.47;100.00
65760;BME280;52496;51.082;5.066;2023-09-12T06:29:51;101202.44;;;18.49;100.00
65760;BME280;52496;51.082;5.066;2023-09-12T06:32:21;101192.22;;;18.51;100.00
65760;BME280;52496;51.082;5.066;2023-09-12T06:34:52;101190.09;;;18.53;100.00
65760;BME280;52496;51.082;5.066;2023-09-12T06:37:22;101188.00;;;18.55;100.00
65760;BME280;52496;51.082;5.066;2023-09-12T06:39:53;101168.59;;;18.58;100.00
65760;BME280;52496;51.082;5.066;2023-09-12T06:42:23;101170.97;;;18.66;100.00
65760;BME280;52496;51.082;5.066;2023-09-12T06:44:54;101176.69;;;18.76;100.00
65760;BME280;52496;51.082;5.066;2023-09-12T06:47:24;101177.41;;;18.84;100.00
65760;BME280;52496;51.082;5.066;2023-09-12T06:49:55;101179.56;;;18.93;100.00
65760;BME280;52496;51.082;5.066;2023-09-12T06:52:25;101185.03;;;19.05;100.00
65760;BME280;52496;51.082;5.066;2023-09-12T06:54:57;101188.59;;;19.17;100.00
65760;BME280;52496;51.082;5.066;2023-09-12T06:57:27;101184.69;;;19.25;100.00
65760;BME280;52496;51.082;5.066;2023-09-12T06:59:59;101180.38;;;19.36;100.00
65760;BME280;52496;51.082;5.066;2023-09-12T07:02:29;101177.28;;;19.44;100.00
65760;BME280;52496;51.082;5.066;2023-09-12T07:05:00;101170.44;;;19.53;100.00
65760;BME280;52496;51.082;5.066;2023-09-12T07:07:31;101164.44;;;19.63;100.00
65760;BME280;52496;51.082;5.066;2023-09-12T07:10:03;101162.00;;;19.73;100.00
65760;BME280;52496;51.082;5.066;2023-09-12T07:12:33;101157.84;;;19.82;100.00
65760;BME280;52496;51.082;5.066;2023-09-12T07:15:05;101169.50;;;19.94;100.00
65760;BME280;52496;51.082;5.066;2023-09-12T07:17:36;101173.25;;;20.05;100.00
65760;BME280;52496;51.082;5.066;2023-09-12T07:20:07;101184.91;;;20.17;100.00
65760;BME280;52496;51.082;5.066;2023-09-12T07:22:41;101187.84;;;20.28;100.00
65760;BME280;52496;51.082;5.066;2023-09-12T07:25:13;101196.78;;;20.40;100.00
65760;BME280;52496;51.082;5.066;2023-09-12T07:27:44;101199.50;;;20.52;100.00
65760;BME280;52496;51.082;5.066;2023-09-12T07:30:15;101207.63;;;20.64;100.00
65760;BME280;52496;51.082;5.066;2023-09-12T07:32:45;101217.03;;;20.73;100.00
65760;BME280;52496;51.082;5.066;2023-09-12T07:35:16;101217.22;;;20.83;100.00
65760;BME280;52496;51.082;5.066;2023-09-12T07:37:46;101221.19;;;20.92;100.00
65760;BME280;52496;51.082;5.066;2023-09-12T07:40:17;101220.53;;;21.02;100.00
65760;BME280;52496;51.082;5.066;2023-09-12T07:42:47;101228.63;;;21.14;100.00
65760;BME280;52496;51.082;5.066;2023-09-12T07:45:18;101226.66;;;21.26;100.00
65760;BME280;52496;51.082;5.066;2023-09-12T07:47:50;101223.09;;;21.37;100.00
65760;BME280;52496;51.082;5.066;2023-09-12T07:50:21;101222.16;;;21.48;100.00
65760;BME280;52496;51.082;5.066;2023-09-12T07:52:51;101228.19;;;21.67;100.00
65760;BME280;52496;51.082;5.066;2023-09-12T07:55:22;101231.13;;;21.83;100.00
65760;BME280;52496;51.082;5.066;2023-09-12T07:57:52;101235.91;;;21.92;100.00
65760;BME280;52496;51.082;5.066;2023-09-12T08:00:23;101243.19;;;22.09;100.00
65760;BME280;52496;51.082;5.066;2023-09-12T08:02:54;101243.44;;;22.24;100.00
65760;BME280;52496;51.082;5.066;2023-09-12T08:05:24;101242.25;;;22.37;100.00
65760;BME280;52496;51.082;5.066;2023-09-12T08:07:55;101253.47;;;22.40;100.00
65760;BME280;52496;51.082;5.066;2023-09-12T08:10:26;101243.19;;;22.48;100.00
65760;BME280;52496;51.082;5.066;2023-09-12T08:12:56;101240.03;;;22.56;100.00
65760;BME280;52496;51.082;5.066;2023-09-12T08:15:27;101229.22;;;22.66;100.00
65760;BME280;52496;51.082;5.066;2023-09-12T08:17:57;101223.06;;;22.76;100.00
65760;BME280;52496;51.082;5.066;2023-09-12T08:20:28;101217.03;;;22.96;100.00
65760;BME280;52496;51.082;5.066;2023-09-12T08:22:58;101218.06;;;23.17;100.00
65760;BME280;52496;51.082;5.066;2023-09-12T08:25:29;101227.47;;;23.36;100.00
65760;BME280;52496;51.082;5.066;2023-09-12T08:28:00;101228.75;;;23.55;100.00
65760;BME280;52496;51.082;5.066;2023-09-12T08:30:30;101230.19;;;23.68;100.00
65760;BME280;52496;51.082;5.066;2023-09-12T08:33:00;101236.03;;;23.82;100.00
65760;BME280;52496;51.082;5.066;2023-09-12T08:35:34;101243.50;;;23.97;100.00
65760;BME280;52496;51.082;5.066;2023-09-12T08:38:04;101254.50;;;24.12;100.00
65760;BME280;52496;51.082;5.066;2023-09-12T08:40:35;101249.38;;;24.21;100.00
65760;BME280;52496;51.082;5.066;2023-09-12T08:43:06;101253.00;;;24.32;100.00
65760;BME280;52496;51.082;5.066;2023-09-12T08:45:37;101256.84;;;24.41;100.00
65760;BME280;52496;51.082;5.066;2023-09-12T08:48:08;101249.28;;;24.58;100.00
65760;BME280;52496;51.082;5.066;2023-09-12T08:50:38;101249.31;;;24.68;100.00
65760;BME280;52496;51.082;5.066;2023-09-12T08:53:09;101246.88;;;24.72;100.00
65760;BME280;52496;51.082;5.066;2023-09-12T08:55:40;101243.31;;;24.77;100.00
65760;BME280;52496;51.082;5.066;2023-09-12T08:58:11;101243.31;;;24.71;100.00
65760;BME280;52496;51.082;5.066;2023-09-12T09:00:42;101233.47;;;24.65;100.00
65760;BME280;52496;51.082;5.066;2023-09-12T09:03:13;101226.31;;;24.64;100.00
65760;BME280;52496;51.082;5.066;2023-09-12T09:05:45;101228.56;;;24.78;100.00
65760;BME280;52496;51.082;5.066;2023-09-12T09:08:17;101236.75;;;24.83;100.00
65760;BME280;52496;51.082;5.066;2023-09-12T09:10:56;101232.72;;;24.95;100.00
65760;BME280;52496;51.082;5.066;2023-09-12T09:13:26;101235.16;;;25.07;100.00
65760;BME280;52496;51.082;5.066;2023-09-12T09:19:00;101237.13;;;25.43;100.00
65760;BME280;52496;51.082;5.066;2023-09-12T09:21:32;101230.53;;;25.59;100.00
65760;BME280;52496;51.082;5.066;2023-09-12T09:24:12;101234.66;;;25.72;100.00
65760;BME280;52496;51.082;5.066;2023-09-12T09:29:19;101222.88;;;25.81;100.00
65760;BME280;52496;51.082;5.066;2023-09-12T09:31:51;101220.09;;;25.86;100.00
65760;BME280;52496;51.082;5.066;2023-09-12T09:34:22;101220.41;;;25.90;100.00
65760;BME280;52496;51.082;5.066;2023-09-12T09:36:56;101217.91;;;25.94;100.00
65760;BME280;52496;51.082;5.066;2023-09-12T09:39:28;101214.56;;;26.12;100.00
65760;BME280;52496;51.082;5.066;2023-09-12T09:42:01;101209.28;;;26.26;96.85
65760;BME280;52496;51.082;5.066;2023-09-12T09:44:32;101213.63;;;26.37;96.30
65760;BME280;52496;51.082;5.066;2023-09-12T09:47:03;101205.09;;;26.49;95.17
65760;BME280;52496;51.082;5.066;2023-09-12T09:49:33;101200.09;;;26.66;97.68
65760;BME280;52496;51.082;5.066;2023-09-12T09:52:07;101210.03;;;26.96;95.00
65760;BME280;52496;51.082;5.066;2023-09-12T09:54:43;101210.97;;;27.21;92.79
65760;BME280;52496;51.082;5.066;2023-09-12T09:57:13;101213.03;;;27.34;92.46
65760;BME280;52496;51.082;5.066;2023-09-12T09:59:49;101209.34;;;27.49;92.24
65760;BME280;52496;51.082;5.066;2023-09-12T10:02:25;101217.44;;;27.64;89.29
65760;BME280;52496;51.082;5.066;2023-09-12T10:04:57;101223.13;;;27.73;91.74
65760;BME280;52496;51.082;5.066;2023-09-12T10:07:33;101213.16;;;27.77;88.09
65760;BME280;52496;51.082;5.066;2023-09-12T10:10:07;101217.50;;;27.88;88.27
65760;BME280;52496;51.082;5.066;2023-09-12T10:12:44;101222.91;;;27.94;88.23
65760;BME280;52496;51.082;5.066;2023-09-12T10:15:19;101215.06;;;28.06;87.19
65760;BME280;52496;51.082;5.066;2023-09-12T10:17:58;101211.56;;;28.24;85.34
65760;BME280;52496;51.082;5.066;2023-09-12T10:20:37;101214.72;;;28.36;85.16
65760;BME280;52496;51.082;5.066;2023-09-12T10:23:18;101217.47;;;28.36;82.76
65760;BME280;52496;51.082;5.066;2023-09-12T10:25:50;101217.88;;;28.49;83.67
65760;BME280;52496;51.082;5.066;2023-09-12T10:28:21;101217.34;;;28.66;82.90
65760;BME280;52496;51.082;5.066;2023-09-12T10:30:52;101216.44;;;28.51;81.43
65760;BME280;52496;51.082;5.066;2023-09-12T10:33:24;101214.41;;;28.38;83.01
65760;BME280;52496;51.082;5.066;2023-09-12T10:35:56;101214.00;;;28.26;82.00
65760;BME280;52496;51.082;5.066;2023-09-12T10:38:30;101222.44;;;28.34;84.18
65760;BME280;52496;51.082;5.066;2023-09-12T10:41:03;101219.34;;;28.60;82.00
65760;BME280;52496;51.082;5.066;2023-09-12T10:43:35;101211.94;;;28.79;80.01
65760;BME280;52496;51.082;5.066;2023-09-12T10:46:10;101198.41;;;29.02;80.55
65760;BME280;52496;51.082;5.066;2023-09-12T10:48:42;101206.47;;;29.31;78.43
65760;BME280;52496;51.082;5.066;2023-09-12T10:51:13;101201.78;;;29.45;78.72
65760;BME280;52496;51.082;5.066;2023-09-12T10:53:49;101201.38;;;29.38;76.48
65760;BME280;52496;51.082;5.066;2023-09-12T10:56:21;101193.97;;;29.20;77.60
65760;BME280;52496;51.082;5.066;2023-09-12T10:59:12;101194.44;;;28.89;80.07
65760;BME280;52496;51.082;5.066;2023-09-12T11:01:44;101191.94;;;28.74;79.19
65760;BME280;52496;51.082;5.066;2023-09-12T11:06:49;101194.75;;;28.50;80.69
65760;BME280;52496;51.082;5.066;2023-09-12T11:09:24;101199.97;;;28.27;81.14
65760;BME280;52496;51.082;5.066;2023-09-12T11:12:04;101193.84;;;28.11;83.93
65760;BME280;52496;51.082;5.066;2023-09-12T11:15:04;101197.00;;;28.00;82.69
65760;BME280;52496;51.082;5.066;2023-09-12T11:17:42;101208.06;;;27.95;83.55
65760;BME280;52496;51.082;5.066;2023-09-12T11:20:13;101210.28;;;27.93;83.04
65760;BME280;52496;51.082;5.066;2023-09-12T11:22:46;101212.28;;;27.87;84.26
65760;BME280;52496;51.082;5.066;2023-09-12T11:25:21;101202.09;;;27.87;82.67
65760;BME280;52496;51.082;5.066;2023-09-12T11:30:26;101203.25;;;27.81;86.57
65760;BME280;52496;51.082;5.066;2023-09-12T11:33:04;101191.75;;;28.27;86.52
65760;BME280;52496;51.082;5.066;2023-09-12T11:35:37;101192.69;;;28.79;80.25
65760;BME280;52496;51.082;5.066;2023-09-12T11:38:10;101189.19;;;29.25;80.19
65760;BME280;52496;51.082;5.066;2023-09-12T11:40:43;101197.78;;;29.70;77.17
65760;BME280;52496;51.082;5.066;2023-09-12T11:43:23;101195.16;;;30.21;76.70
65760;BME280;52496;51.082;5.066;2023-09-12T11:45:55;101198.56;;;30.54;71.15
65760;BME280;52496;51.082;5.066;2023-09-12T11:48:29;101192.16;;;30.81;73.30
65760;BME280;52496;51.082;5.066;2023-09-12T11:51:00;101190.72;;;31.06;72.95
65760;BME280;52496;51.082;5.066;2023-09-12T11:53:31;101200.06;;;31.19;69.88
65760;BME280;52496;51.082;5.066;2023-09-12T11:56:05;101185.59;;;31.36;69.21
65760;BME280;52496;51.082;5.066;2023-09-12T11:58:37;101187.19;;;31.37;65.81
65760;BME280;52496;51.082;5.066;2023-09-12T12:01:11;101190.50;;;31.25;68.08
65760;BME280;52496;51.082;5.066;2023-09-12T12:03:43;101189.75;;;31.33;68.06
65760;BME280;52496;51.082;5.066;2023-09-12T12:06:14;101179.78;;;31.46;67.50
65760;BME280;52496;51.082;5.066;2023-09-12T12:08:45;101168.63;;;31.60;68.80
65760;BME280;52496;51.082;5.066;2023-09-12T12:11:16;101177.06;;;31.54;63.10
65760;BME280;52496;51.082;5.066;2023-09-12T12:13:46;101178.97;;;31.23;64.30
65760;BME280;52496;51.082;5.066;2023-09-12T12:16:17;101169.66;;;31.19;67.67
65760;BME280;52496;51.082;5.066;2023-09-12T12:18:48;101166.16;;;31.27;66.54
65760;BME280;52496;51.082;5.066;2023-09-12T12:21:18;101160.69;;;31.13;65.43
65760;BME280;52496;51.082;5.066;2023-09-12T12:23:57;101162.66;;;31.13;66.55
65760;BME280;52496;51.082;5.066;2023-09-12T12:26:29;101164.38;;;31.31;65.73
65760;BME280;52496;51.082;5.066;2023-09-12T12:29:00;101167.41;;;31.43;64.70
65760;BME280;52496;51.082;5.066;2023-09-12T12:31:31;101163.09;;;31.60;64.64
65760;BME280;52496;51.082;5.066;2023-09-12T12:34:02;101161.75;;;31.48;64.71
65760;BME280;52496;51.082;5.066;2023-09-12T12:36:41;101159.97;;;31.52;63.01
65760;BME280;52496;51.082;5.066;2023-09-12T12:39:12;101155.50;;;31.65;63.10
65760;BME280;52496;51.082;5.066;2023-09-12T12:41:43;101159.03;;;31.57;62.84
65760;BME280;52496;51.082;5.066;2023-09-12T12:44:14;101149.06;;;31.47;63.16
65760;BME280;52496;51.082;5.066;2023-09-12T12:46:52;101146.25;;;31.79;61.68
65760;BME280;52496;51.082;5.066;2023-09-12T12:49:23;101150.38;;;31.90;64.47
65760;BME280;52496;51.082;5.066;2023-09-12T12:51:55;101141.34;;;32.24;62.23
65760;BME280;52496;51.082;5.066;2023-09-12T12:54:31;101140.84;;;32.39;60.59
65760;BME280;52496;51.082;5.066;2023-09-12T12:57:03;101128.63;;;32.40;58.73
65760;BME280;52496;51.082;5.066;2023-09-12T12:59:34;101140.72;;;32.53;59.97
65760;BME280;52496;51.082;5.066;2023-09-12T13:02:06;101129.28;;;32.20;60.06
65760;BME280;52496;51.082;5.066;2023-09-12T13:04:37;101136.84;;;31.88;60.01
65760;BME280;52496;51.082;5.066;2023-09-12T13:07:08;101125.41;;;31.33;61.42
65760;BME280;52496;51.082;5.066;2023-09-12T13:09:38;101129.03;;;30.88;63.89
65760;BME280;52496;51.082;5.066;2023-09-12T13:12:09;101118.97;;;30.47;63.09
65760;BME280;52496;51.082;5.066;2023-09-12T13:14:40;101118.28;;;30.28;66.75
65760;BME280;52496;51.082;5.066;2023-09-12T13:17:11;101116.41;;;30.51;65.41
65760;BME280;52496;51.082;5.066;2023-09-12T13:19:42;101113.50;;;31.01;64.24
65760;BME280;52496;51.082;5.066;2023-09-12T13:22:12;101105.94;;;31.38;60.67